createdAt,value
2022-12-27T00:00:09.841Z,13.15
2022-12-27T00:02:44.375Z,13.40
2022-12-27T00:05:15.078Z,14.05
2022-12-27T00:07:44.179Z,14.00
2022-12-27T00:10:11.987Z,13.50
2022-12-27T00:12:39.931Z,14.10
2022-12-27T00:15:08.625Z,19.15
2022-12-27T00:17:38.768Z,18.15
2022-12-27T00:20:11.291Z,17.82
2022-12-27T00:22:37.466Z,16.07
2022-12-27T00:25:08.913Z,19.15
2022-12-27T00:27:36.966Z,18.67
2022-12-27T00:30:06.307Z,16.10
2022-12-27T00:32:34.661Z,19.25
2022-12-27T00:35:02.642Z,18.73
2022-12-27T00:37:30.470Z,18.77
2022-12-27T00:39:58.985Z,18.60
2022-12-27T00:42:26.662Z,18.07
2022-12-27T00:44:54.599Z,16.97
2022-12-27T00:47:22.548Z,18.20
2022-12-27T00:49:50.139Z,19.25
2022-12-27T00:52:18.138Z,21.82
2022-12-27T00:54:46.006Z,20.65
2022-12-27T00:57:13.750Z,19.02
2022-12-27T00:59:41.618Z,22.13
2022-12-27T01:02:09.165Z,20.48
2022-12-27T01:04:37.177Z,19.17
2022-12-27T01:07:04.855Z,17.98
2022-12-27T01:09:32.504Z,18.10
2022-12-27T01:12:00.259Z,17.70
2022-12-27T01:14:28.220Z,16.20
2022-12-27T01:16:55.972Z,17.67
2022-12-27T01:19:24.731Z,15.93
2022-12-27T01:21:52.238Z,17.05
2022-12-27T01:24:19.912Z,18.35
2022-12-27T01:26:47.592Z,17.05
2022-12-27T01:29:15.378Z,17.12
2022-12-27T01:31:43.201Z,17.23
2022-12-27T01:34:11.063Z,16.23
2022-12-27T01:36:38.811Z,17.65
2022-12-27T01:39:07.918Z,16.60
2022-12-27T01:41:58.311Z,15.20
2022-12-27T01:44:45.557Z,15.38
2022-12-27T01:47:24.893Z,14.73
2022-12-27T01:50:25.404Z,13.88
2022-12-27T01:53:07.561Z,15.23
2022-12-27T01:56:01.309Z,14.23
2022-12-27T01:58:55.888Z,13.25
2022-12-27T02:01:38.037Z,12.95
2022-12-27T02:04:11.069Z,12.85
2022-12-27T02:06:39.630Z,12.78
2022-12-27T02:09:31.224Z,11.85
2022-12-27T02:12:01.216Z,10.80
2022-12-27T02:14:45.531Z,11.05
2022-12-27T02:17:26.496Z,11.65
2022-12-27T02:20:19.463Z,11.97
2022-12-27T02:23:39.885Z,12.88
2022-12-27T02:26:38.749Z,14.00
2022-12-27T02:29:42.737Z,12.98
2022-12-27T02:32:47.801Z,13.50
2022-12-27T02:35:23.592Z,14.38
2022-12-27T02:37:59.404Z,13.62
2022-12-27T02:40:47.634Z,12.93
2022-12-27T02:43:34.652Z,14.23
2022-12-27T02:46:40.914Z,13.72
2022-12-27T02:53:07.607Z,12.28
2022-12-27T02:56:38.966Z,12.03
2022-12-27T03:00:08.489Z,12.43
2022-12-27T03:03:06.071Z,12.53
2022-12-27T03:05:50.173Z,14.85
2022-12-27T03:08:23.084Z,14.45
2022-12-27T03:11:20.583Z,15.23
2022-12-27T03:14:18.962Z,13.28
2022-12-27T03:16:57.275Z,11.68
2022-12-27T03:20:01.028Z,11.57
2022-12-27T03:22:50.795Z,13.22
2022-12-27T03:25:30.771Z,13.62
2022-12-27T03:28:34.566Z,11.75
2022-12-27T03:31:26.468Z,11.22
2022-12-27T03:33:59.149Z,10.48
2022-12-27T03:36:47.413Z,10.72
2022-12-27T03:39:30.023Z,12.23
2022-12-27T03:42:24.100Z,14.75
2022-12-27T03:44:52.392Z,15.20
2022-12-27T03:47:40.684Z,13.50
2022-12-27T03:50:31.652Z,13.25
2022-12-27T03:53:10.713Z,13.28
2022-12-27T03:55:39.007Z,12.18
2022-12-27T03:58:06.846Z,12.25
2022-12-27T04:00:34.854Z,12.25
2022-12-27T04:03:03.942Z,13.83
2022-12-27T04:05:31.777Z,14.28
2022-12-27T04:08:18.285Z,15.23
2022-12-27T04:13:50.965Z,13.58
2022-12-27T04:16:37.247Z,15.80
2022-12-27T04:19:23.535Z,16.90
2022-12-27T04:22:09.834Z,14.73
2022-12-27T04:24:56.191Z,14.13
2022-12-27T04:27:42.443Z,14.05
2022-12-27T04:30:29.588Z,13.32
2022-12-27T04:33:16.810Z,11.73
2022-12-27T04:35:45.484Z,11.18
2022-12-27T04:38:13.412Z,11.73
2022-12-27T04:41:00.049Z,11.70
2022-12-27T04:43:46.126Z,11.18
2022-12-27T04:46:42.997Z,11.53
2022-12-27T04:49:42.213Z,12.95
2022-12-27T04:52:39.463Z,12.07
2022-12-27T04:55:15.454Z,12.20
2022-12-27T04:57:43.558Z,12.60
2022-12-27T05:00:31.739Z,10.98
2022-12-27T05:03:01.751Z,10.68
2022-12-27T05:05:29.836Z,10.63
2022-12-27T05:08:19.516Z,10.45
2022-12-27T05:11:05.717Z,11.28
2022-12-27T05:13:51.820Z,14.95
2022-12-27T05:16:19.660Z,15.70
2022-12-27T05:18:47.482Z,17.55
2022-12-27T05:21:15.279Z,21.00
2022-12-27T05:24:05.459Z,21.57
2022-12-27T05:26:32.665Z,20.45
2022-12-27T05:29:01.051Z,19.90
2022-12-27T05:31:29.621Z,20.50
2022-12-27T05:33:58.262Z,20.12
2022-12-27T05:36:27.437Z,19.10
2022-12-27T05:38:55.497Z,18.82
2022-12-27T05:41:23.547Z,17.85
2022-12-27T05:43:51.849Z,18.92
2022-12-27T05:46:22.614Z,17.62
2022-12-27T05:48:50.495Z,16.80
2022-12-27T05:51:20.934Z,16.62
2022-12-27T05:53:49.412Z,16.55
2022-12-27T05:56:19.939Z,17.60
2022-12-27T05:58:47.966Z,15.88
2022-12-27T06:01:17.742Z,16.55
2022-12-27T06:03:48.508Z,17.37
2022-12-27T06:06:16.345Z,28.83
2022-12-27T06:08:44.367Z,29.85
2022-12-27T06:11:18.989Z,26.33
2022-12-27T06:13:54.113Z,49.67
2022-12-27T06:16:22.478Z,40.03
2022-12-27T06:18:50.304Z,37.88
2022-12-27T06:21:21.324Z,35.00
2022-12-27T06:23:49.615Z,35.35
2022-12-27T06:26:24.679Z,34.43
2022-12-27T06:28:55.202Z,34.03
2022-12-27T06:31:24.011Z,32.88
2022-12-27T06:33:52.797Z,31.80
2022-12-27T06:36:25.954Z,31.42
2022-12-27T06:38:58.595Z,37.00
2022-12-27T06:41:26.541Z,35.68
2022-12-27T06:43:57.638Z,40.35
2022-12-27T06:46:25.889Z,43.10
2022-12-27T06:48:53.636Z,42.48
2022-12-27T06:51:21.796Z,47.88
2022-12-27T06:53:50.280Z,76.02
2022-12-27T06:56:21.668Z,66.05
2022-12-27T06:58:51.260Z,69.22
2022-12-27T07:01:25.912Z,57.88
2022-12-27T07:03:59.482Z,70.67
2022-12-27T07:06:31.741Z,74.37
2022-12-27T07:09:00.999Z,76.57
2022-12-27T07:11:31.356Z,73.33
2022-12-27T07:13:59.274Z,62.13
2022-12-27T07:16:31.788Z,59.48
2022-12-27T07:19:00.211Z,60.15
2022-12-27T07:21:29.528Z,60.45
2022-12-27T07:23:57.833Z,57.73
2022-12-27T07:26:29.371Z,60.03
2022-12-27T07:29:01.009Z,71.05
2022-12-27T07:31:32.406Z,71.65
2022-12-27T07:34:02.723Z,57.00
2022-12-27T07:36:38.025Z,52.43
2022-12-27T07:39:07.666Z,53.02
2022-12-27T07:41:36.742Z,52.53
2022-12-27T07:44:05.681Z,47.95
2022-12-27T07:46:34.161Z,54.50
2022-12-27T07:49:02.084Z,57.03
2022-12-27T07:51:30.231Z,58.33
2022-12-27T07:53:58.115Z,62.62
2022-12-27T07:56:27.555Z,62.45
2022-12-27T07:58:59.021Z,56.15
2022-12-27T08:01:30.258Z,57.75
2022-12-27T08:03:58.092Z,57.08
2022-12-27T08:06:32.035Z,56.28
2022-12-27T08:09:03.474Z,57.45
2022-12-27T08:11:31.209Z,49.48
2022-12-27T08:13:59.885Z,45.40
2022-12-27T08:16:28.122Z,42.50
2022-12-27T08:18:56.408Z,36.58
2022-12-27T08:21:24.198Z,31.25
2022-12-27T08:23:52.293Z,31.00
2022-12-27T08:26:21.479Z,32.48
2022-12-27T08:28:49.224Z,31.97
2022-12-27T08:31:17.142Z,35.90
2022-12-27T08:33:44.940Z,34.85
2022-12-27T08:38:43.856Z,33.63
2022-12-27T08:41:12.393Z,34.03
2022-12-27T08:43:40.035Z,34.95
2022-12-27T08:46:09.207Z,35.85
2022-12-27T08:48:37.446Z,33.65
2022-12-27T08:51:12.124Z,44.23
2022-12-27T08:53:36.588Z,43.80
2022-12-27T08:56:04.652Z,42.45
2022-12-27T08:58:32.293Z,42.55
2022-12-27T09:01:08.815Z,41.58
2022-12-27T09:03:36.866Z,39.13
2022-12-27T09:06:19.744Z,41.75
2022-12-27T09:08:49.754Z,44.27
2022-12-27T09:11:23.965Z,42.53
2022-12-27T09:13:52.636Z,43.75
2022-12-27T09:16:24.096Z,39.53
2022-12-27T09:18:55.349Z,39.85
2022-12-27T09:21:26.238Z,34.85
2022-12-27T09:23:56.066Z,35.38
2022-12-27T09:26:28.387Z,33.10
2022-12-27T09:28:58.293Z,31.10
2022-12-27T09:31:27.549Z,31.62
2022-12-27T09:33:56.502Z,29.02
2022-12-27T09:36:28.881Z,32.53
2022-12-27T09:38:58.166Z,37.98
2022-12-27T09:44:55.386Z,58.83
2022-12-27T09:47:34.657Z,56.35
2022-12-27T09:50:13.366Z,32.33
2022-12-27T09:53:01.836Z,25.02
2022-12-27T09:55:43.927Z,24.90
2022-12-27T09:58:26.466Z,23.98
2022-12-27T10:00:54.272Z,27.42
2022-12-27T10:03:26.268Z,32.67
2022-12-27T10:06:05.649Z,35.95
2022-12-27T10:08:54.087Z,39.88
2022-12-27T10:11:45.670Z,42.80
2022-12-27T10:15:09.705Z,38.75
2022-12-27T10:18:17.830Z,36.23
2022-12-27T10:21:06.083Z,27.48
2022-12-27T10:23:37.453Z,27.70
2022-12-27T10:26:13.208Z,26.97
2022-12-27T10:29:03.504Z,27.10
2022-12-27T10:31:32.279Z,25.48
2022-12-27T10:34:00.291Z,27.48
2022-12-27T10:36:31.071Z,31.00
2022-12-27T10:39:02.372Z,27.82
2022-12-27T10:41:41.511Z,26.52
2022-12-27T10:44:16.236Z,26.45
2022-12-27T10:46:51.916Z,28.15
2022-12-27T10:49:32.442Z,25.00
2022-12-27T10:52:10.702Z,23.80
2022-12-27T10:54:55.124Z,25.52
2022-12-27T10:57:35.376Z,25.48
2022-12-27T11:00:17.742Z,23.47
2022-12-27T11:02:56.291Z,26.17
2022-12-27T11:05:31.041Z,26.82
2022-12-27T11:08:01.931Z,24.47
2022-12-27T11:10:33.387Z,24.72
2022-12-27T11:13:05.053Z,28.15
2022-12-27T11:15:47.619Z,25.27
2022-12-27T11:18:27.108Z,29.07
2022-12-27T11:21:25.651Z,28.87
2022-12-27T11:23:50.612Z,29.27
2022-12-27T11:26:26.788Z,30.08
2022-12-27T11:28:58.244Z,28.65
2022-12-27T11:31:39.809Z,27.40
2022-12-27T11:34:30.576Z,27.35
2022-12-27T11:37:13.237Z,31.30
2022-12-27T11:39:53.266Z,34.90
2022-12-27T11:42:44.730Z,37.48
2022-12-27T11:45:30.123Z,39.63
2022-12-27T11:48:36.763Z,37.10
2022-12-27T11:51:48.957Z,31.57
2022-12-27T11:54:47.851Z,24.77
2022-12-27T11:57:57.685Z,25.10
2022-12-27T12:00:31.488Z,19.17
2022-12-27T12:03:42.941Z,18.85
2022-12-27T12:06:43.650Z,19.48
2022-12-27T12:09:36.993Z,19.30
2022-12-27T12:12:37.252Z,21.48
2022-12-27T12:15:30.385Z,28.02
2022-12-27T12:18:18.638Z,30.20
2022-12-27T12:21:19.408Z,28.32
2022-12-27T12:24:18.437Z,28.25
2022-12-27T12:26:55.817Z,27.60
2022-12-27T12:30:04.494Z,27.17
2022-12-27T12:32:38.043Z,25.35
2022-12-27T12:35:23.537Z,29.67
2022-12-27T12:41:08.310Z,25.82
2022-12-27T12:46:37.335Z,23.32
2022-12-27T12:49:38.404Z,26.50
2022-12-27T12:52:46.605Z,27.95
2022-12-27T12:55:48.349Z,32.33
2022-12-27T12:58:36.847Z,28.77
2022-12-27T13:01:20.180Z,26.93
2022-12-27T13:04:33.597Z,26.07
2022-12-27T13:07:18.862Z,26.85
2022-12-27T13:10:15.107Z,18.45
2022-12-27T13:13:32.557Z,15.00
2022-12-27T13:16:21.367Z,7.65
2022-12-27T13:19:26.921Z,7.10
2022-12-27T13:22:12.061Z,8.70
2022-12-27T13:24:56.689Z,10.03
2022-12-27T13:27:41.826Z,7.83
2022-12-27T13:30:22.950Z,6.00
2022-12-27T13:33:29.830Z,4.40
2022-12-27T13:36:06.699Z,4.37
2022-12-27T13:38:59.598Z,4.20
2022-12-27T13:41:50.982Z,2.92
2022-12-27T13:44:27.295Z,3.27
2022-12-27T13:47:29.813Z,2.90
2022-12-27T13:50:31.916Z,3.65
2022-12-27T13:53:23.032Z,8.23
2022-12-27T13:56:51.835Z,8.08
2022-12-27T13:59:28.514Z,4.70
2022-12-27T14:02:32.268Z,4.20
2022-12-27T14:05:11.611Z,3.42
2022-12-27T14:08:01.018Z,6.30
2022-12-27T14:10:52.782Z,6.53
2022-12-27T14:13:36.036Z,5.95
2022-12-27T14:16:30.163Z,5.35
2022-12-27T14:19:11.694Z,4.25
2022-12-27T14:21:59.489Z,4.67
2022-12-27T14:24:44.882Z,5.20
2022-12-27T14:27:32.450Z,3.90
2022-12-27T14:30:32.405Z,4.60
2022-12-27T14:33:34.059Z,4.42
2022-12-27T14:36:39.480Z,4.20
2022-12-27T14:39:38.884Z,5.05
2022-12-27T14:42:27.283Z,5.30
2022-12-27T14:45:34.895Z,4.45
2022-12-27T14:48:55.232Z,4.25
2022-12-27T14:52:05.927Z,4.72
2022-12-27T14:54:44.181Z,5.53
2022-12-27T14:57:34.038Z,5.40
2022-12-27T15:00:22.712Z,5.30
2022-12-27T15:03:16.738Z,5.62
2022-12-27T15:06:11.758Z,5.30
2022-12-27T15:08:50.547Z,5.60
2022-12-27T15:11:45.214Z,5.17
2022-12-27T15:14:51.131Z,4.78
2022-12-27T15:17:42.751Z,4.05
2022-12-27T15:20:57.278Z,3.85
2022-12-27T15:23:51.763Z,5.65
2022-12-27T15:26:27.877Z,6.00
2022-12-27T15:29:09.917Z,5.33
2022-12-27T15:32:09.875Z,5.55
2022-12-27T15:35:15.207Z,5.87
2022-12-27T15:38:28.429Z,5.83
2022-12-27T15:41:30.294Z,6.72
2022-12-27T15:44:09.471Z,9.58
2022-12-27T15:46:58.103Z,9.90
2022-12-27T15:49:50.943Z,7.97
2022-12-27T15:53:15.340Z,10.85
2022-12-27T15:56:09.181Z,11.80
2022-12-27T15:58:37.809Z,12.90
2022-12-27T16:01:28.402Z,16.97
2022-12-27T16:03:58.166Z,13.62
2022-12-27T16:06:49.470Z,13.22
2022-12-27T16:09:28.875Z,13.38
2022-12-27T16:12:15.363Z,10.03
2022-12-27T16:14:44.217Z,9.58
2022-12-27T16:17:40.105Z,9.30
2022-12-27T16:23:04.641Z,9.23
2022-12-27T16:25:36.546Z,8.85
2022-12-27T16:28:23.002Z,9.28
2022-12-27T16:30:57.182Z,10.70
2022-12-27T16:33:38.258Z,10.93
2022-12-27T16:36:17.572Z,9.20
2022-12-27T16:38:54.395Z,6.12
2022-12-27T16:41:55.610Z,5.60
2022-12-27T16:44:33.115Z,5.78
2022-12-27T16:50:09.298Z,6.12
2022-12-27T16:53:09.659Z,7.12
2022-12-27T16:56:15.083Z,8.45
2022-12-27T16:58:44.240Z,7.53
2022-12-27T17:01:38.705Z,7.50
2022-12-27T17:04:08.342Z,8.50
2022-12-27T17:06:42.280Z,7.80
2022-12-27T17:09:15.801Z,7.80
2022-12-27T17:11:59.393Z,6.30
2022-12-27T17:14:37.957Z,5.70
2022-12-27T17:17:16.684Z,4.10
2022-12-27T17:20:05.388Z,4.90
2022-12-27T17:22:35.551Z,4.58
2022-12-27T17:25:05.022Z,6.40
2022-12-27T17:28:11.698Z,5.20
2022-12-27T17:31:08.233Z,6.22
2022-12-27T17:34:02.938Z,9.23
2022-12-27T17:36:55.162Z,6.70
2022-12-27T17:39:40.747Z,5.78
2022-12-27T17:42:39.349Z,5.30
2022-12-27T17:45:34.286Z,4.30
2022-12-27T17:48:10.556Z,3.98
2022-12-27T17:50:42.340Z,4.50
2022-12-27T17:53:33.384Z,3.67
2022-12-27T17:56:33.774Z,4.50
2022-12-27T17:59:08.493Z,3.85
2022-12-27T18:01:47.173Z,6.05
2022-12-27T18:04:23.412Z,5.90
2022-12-27T18:07:04.863Z,5.12
2022-12-27T18:09:46.205Z,7.28
2022-12-27T18:12:22.149Z,8.63
2022-12-27T18:15:04.651Z,10.30
2022-12-27T18:17:45.984Z,7.40
2022-12-27T18:20:35.902Z,4.97
2022-12-27T18:23:12.101Z,5.50
2022-12-27T18:25:48.177Z,4.50
2022-12-27T18:28:32.964Z,5.03
2022-12-27T18:31:14.478Z,5.20
2022-12-27T18:33:57.304Z,4.22
2022-12-27T18:36:42.368Z,4.60
2022-12-27T18:39:21.440Z,5.03
2022-12-27T18:41:52.399Z,4.17
2022-12-27T18:44:27.718Z,5.20
2022-12-27T18:47:00.147Z,4.70
2022-12-27T18:49:34.903Z,6.50
2022-12-27T18:52:16.081Z,5.17
2022-12-27T18:54:43.977Z,3.65
2022-12-27T18:57:39.388Z,4.15
2022-12-27T19:00:24.863Z,3.65
2022-12-27T19:02:57.983Z,2.58
2022-12-27T19:05:29.214Z,2.50
2022-12-27T19:08:16.279Z,3.17
2022-12-27T19:10:50.947Z,2.75
2022-12-27T19:13:29.119Z,3.67
2022-12-27T19:15:58.330Z,4.30
2022-12-27T19:18:34.205Z,4.28
2022-12-27T19:21:05.347Z,4.12
2022-12-27T19:23:39.263Z,4.78
2022-12-27T19:26:27.482Z,6.55
2022-12-27T19:29:18.074Z,4.60
2022-12-27T19:32:07.464Z,6.85
2022-12-27T19:34:50.797Z,9.45
2022-12-27T19:37:18.863Z,18.85
2022-12-27T19:39:48.395Z,6.72
2022-12-27T19:42:21.649Z,9.78
2022-12-27T19:44:49.858Z,5.53
2022-12-27T19:47:18.037Z,7.45
2022-12-27T19:49:46.023Z,5.62
2022-12-27T19:52:18.626Z,5.10
2022-12-27T19:54:51.030Z,4.25
2022-12-27T19:57:20.326Z,7.62
2022-12-27T19:59:48.540Z,5.37
2022-12-27T20:02:17.919Z,12.78
2022-12-27T20:04:46.374Z,6.65
2022-12-27T20:07:25.783Z,9.45
2022-12-27T20:09:54.034Z,6.28
2022-12-27T20:12:22.012Z,23.22
2022-12-27T20:14:50.080Z,8.73
2022-12-27T20:17:17.941Z,10.93
2022-12-27T20:19:45.885Z,12.50
2022-12-27T20:22:13.981Z,11.85
2022-12-27T20:24:42.520Z,29.65
2022-12-27T20:27:12.446Z,16.25
2022-12-27T20:29:40.294Z,7.15
2022-12-27T20:32:08.725Z,5.55
2022-12-27T20:34:36.981Z,5.58
2022-12-27T20:37:05.404Z,3.83
2022-12-27T20:39:33.910Z,3.67
2022-12-27T20:42:02.020Z,2.62
2022-12-27T20:44:30.111Z,3.58
2022-12-27T20:46:58.138Z,4.00
2022-12-27T20:49:26.455Z,3.27
2022-12-27T20:51:54.497Z,3.12
2022-12-27T20:54:22.016Z,3.20
2022-12-27T20:56:50.220Z,2.87
2022-12-27T20:59:18.414Z,3.83
2022-12-27T21:01:49.352Z,4.08
2022-12-27T21:04:16.863Z,3.12
2022-12-27T21:06:46.626Z,4.85
2022-12-27T21:09:14.580Z,6.03
2022-12-27T21:11:42.682Z,10.82
2022-12-27T21:14:13.161Z,4.37
2022-12-27T21:16:41.504Z,4.55
2022-12-27T21:19:11.737Z,3.67
2022-12-27T21:21:39.725Z,4.55
2022-12-27T21:24:13.749Z,3.25
2022-12-27T21:26:42.008Z,6.95
2022-12-27T21:29:11.798Z,4.10
2022-12-27T21:31:39.887Z,3.80
2022-12-27T21:34:08.488Z,3.58
2022-12-27T21:36:39.498Z,3.58
2022-12-27T21:39:09.811Z,4.65
2022-12-27T21:41:39.598Z,3.60
2022-12-27T21:44:07.622Z,3.72
2022-12-27T21:46:39.001Z,4.58
2022-12-27T21:49:12.182Z,4.53
2022-12-27T21:51:42.526Z,3.47
2022-12-27T21:54:12.684Z,5.00
2022-12-27T21:56:41.145Z,4.85
2022-12-27T21:59:12.228Z,4.87
2022-12-27T22:01:50.417Z,4.03
2022-12-27T22:04:13.716Z,4.87
2022-12-27T22:06:46.760Z,5.35
2022-12-27T22:09:12.910Z,5.67
2022-12-27T22:11:41.628Z,6.58
2022-12-27T22:14:10.153Z,6.17
2022-12-27T22:16:39.901Z,5.45
2022-12-27T22:19:11.212Z,4.95
2022-12-27T22:21:43.589Z,5.60
2022-12-27T22:24:15.359Z,5.15
2022-12-27T22:26:43.861Z,7.50
2022-12-27T22:29:12.974Z,6.42
2022-12-27T22:31:42.471Z,6.37
2022-12-27T22:34:10.645Z,6.50
2022-12-27T22:36:38.932Z,7.20
2022-12-27T22:39:07.105Z,7.40
2022-12-27T22:41:36.604Z,7.22
2022-12-27T22:44:12.086Z,7.42
2022-12-27T22:49:10.889Z,7.08
2022-12-27T22:51:40.128Z,7.70
2022-12-27T22:54:08.579Z,8.08
2022-12-27T22:56:41.519Z,7.45
2022-12-27T22:59:13.780Z,7.90
2022-12-27T23:01:44.452Z,10.40
2022-12-27T23:04:19.917Z,20.40
2022-12-27T23:06:47.839Z,20.43
2022-12-27T23:09:15.555Z,22.42
2022-12-27T23:11:43.805Z,20.80
2022-12-27T23:14:16.655Z,24.25
2022-12-27T23:16:47.398Z,24.05
2022-12-27T23:19:20.937Z,22.85
2022-12-27T23:21:49.356Z,21.40
2022-12-27T23:24:17.453Z,19.17
2022-12-27T23:26:45.491Z,20.82
2022-12-27T23:29:14.861Z,19.30
2022-12-27T23:31:55.545Z,19.40
2022-12-27T23:34:13.759Z,20.32
2022-12-27T23:36:42.190Z,26.75
2022-12-27T23:39:11.321Z,27.22
2022-12-27T23:41:39.498Z,28.95
2022-12-27T23:44:09.516Z,29.57
2022-12-27T23:46:37.532Z,28.17
2022-12-27T23:49:05.182Z,27.93
2022-12-27T23:51:33.182Z,29.57
2022-12-27T23:54:03.816Z,29.23
2022-12-27T23:56:33.380Z,29.87
2022-12-27T23:59:02.107Z,32.08
